Terminal Aerodrome Forecast
Issued by NWS

Home | Current Version | Previous Version | Text Only | Print | Product List | Glossary Off
Versions: 1 2 3 4 5 6 7 8 9 10 11 12 13 14 15 16 17 18 19 20 21 22

741
FTUS43 KGRB 030323 AAA
TAFATW
TAF AMD
KATW 030323Z 0303/0324 05010G18KT 2SM -SN OVC005
      TEMPO 0303/0307 1SM -DZ BR BKN003
     FM030800 35008KT 4SM -FZDZSN BR BKN004
     FM031400 33015G25KT 2SM -SN BKN007
      TEMPO 0316/0320 1SM -SN OVC005
     FM032000 31014G25KT 5SM -SHSN OVC015=

USA.gov is the U.S. government's official web portal to all federal, state and local government web resources and services.